createdAt,value
2023-04-09T00:01:15.629Z,3.00
2023-04-09T00:03:44.965Z,4.10
2023-04-09T00:06:13.980Z,3.00
2023-04-09T00:08:42.360Z,3.00
2023-04-09T00:11:12.302Z,4.50
2023-04-09T00:13:41.175Z,3.10
2023-04-09T00:16:09.468Z,4.50
2023-04-09T00:18:38.844Z,3.90
2023-04-09T00:21:08.886Z,4.40
2023-04-09T00:23:38.534Z,4.10
2023-04-09T00:26:07.143Z,4.10
2023-04-09T00:28:36.179Z,3.20
2023-04-09T00:31:04.715Z,2.90
2023-04-09T00:33:33.603Z,2.90
2023-04-09T00:36:02.269Z,1.90
2023-04-09T00:38:31.968Z,2.60
2023-04-09T00:41:07.451Z,2.20
2023-04-09T00:43:36.740Z,3.00
2023-04-09T00:46:05.988Z,2.50
2023-04-09T00:48:34.941Z,2.50
2023-04-09T00:51:03.410Z,2.30
2023-04-09T00:53:31.916Z,1.70
2023-04-09T00:56:00.385Z,1.80
2023-04-09T00:58:33.666Z,2.90
2023-04-09T01:01:02.357Z,2.70
2023-04-09T01:03:32.197Z,4.00
2023-04-09T01:06:28.076Z,3.10
2023-04-09T01:09:36.180Z,1.80
2023-04-09T01:12:28.753Z,3.80
2023-04-09T01:15:01.768Z,2.70
2023-04-09T01:18:01.668Z,3.30
2023-04-09T01:20:36.305Z,3.20
2023-04-09T01:23:11.588Z,1.70
2023-04-09T01:26:02.642Z,3.50
2023-04-09T01:28:42.751Z,2.10
2023-04-09T01:31:15.729Z,5.30
2023-04-09T01:33:44.824Z,4.30
2023-04-09T01:36:13.543Z,3.70
2023-04-09T01:38:42.910Z,1.80
2023-04-09T01:41:14.710Z,3.80
2023-04-09T01:43:43.046Z,4.20
2023-04-09T01:46:12.220Z,3.30
2023-04-09T01:48:40.976Z,2.90
2023-04-09T01:51:14.330Z,2.80
2023-04-09T01:53:43.300Z,3.00
2023-04-09T01:56:14.241Z,2.70
2023-04-09T01:58:44.387Z,3.40
2023-04-09T02:01:13.301Z,3.40
2023-04-09T02:04:03.864Z,4.00
2023-04-09T02:06:40.374Z,3.00
2023-04-09T02:09:09.567Z,3.30
2023-04-09T02:11:38.817Z,3.70
2023-04-09T02:14:09.683Z,2.30
2023-04-09T02:16:38.849Z,2.10
2023-04-09T02:19:07.142Z,2.20
2023-04-09T02:21:37.507Z,2.70
2023-04-09T02:24:06.119Z,3.40
2023-04-09T02:26:34.514Z,2.20
2023-04-09T02:29:03.092Z,2.40
2023-04-09T02:31:32.164Z,2.20
2023-04-09T02:34:00.857Z,3.30
2023-04-09T02:36:29.463Z,4.80
2023-04-09T02:38:57.836Z,4.70
2023-04-09T02:41:27.432Z,3.60
2023-04-09T02:43:56.219Z,2.40
2023-04-09T02:46:25.285Z,3.80
2023-04-09T02:48:54.458Z,2.20
2023-04-09T02:51:22.999Z,2.80
2023-04-09T02:53:55.874Z,1.90
2023-04-09T02:56:24.260Z,4.30
2023-04-09T02:58:54.417Z,3.20
2023-04-09T03:01:24.215Z,2.50
2023-04-09T03:03:52.857Z,3.50
2023-04-09T03:06:21.572Z,2.70
2023-04-09T03:08:56.634Z,1.90
2023-04-09T03:11:25.558Z,1.70
2023-04-09T03:13:53.987Z,2.10
2023-04-09T03:16:25.212Z,1.90
2023-04-09T03:18:53.591Z,2.20
2023-04-09T03:21:22.153Z,2.30
2023-04-09T03:23:51.454Z,1.80
2023-04-09T03:26:19.713Z,2.80
2023-04-09T03:28:50.005Z,1.50
2023-04-09T03:31:18.859Z,1.30
2023-04-09T03:33:47.938Z,1.10
2023-04-09T03:36:16.512Z,2.40
2023-04-09T03:39:08.235Z,2.00
2023-04-09T03:41:39.117Z,2.60
2023-04-09T03:44:11.437Z,2.30
2023-04-09T03:47:00.046Z,1.80
2023-04-09T03:49:29.391Z,2.40
2023-04-09T03:52:02.380Z,4.40
2023-04-09T03:54:39.254Z,6.10
2023-04-09T03:57:14.075Z,6.70
2023-04-09T03:59:46.451Z,5.20
2023-04-09T04:02:16.451Z,5.00
2023-04-09T04:04:48.090Z,4.50
2023-04-09T04:07:17.827Z,3.00
2023-04-09T04:09:54.199Z,3.60
2023-04-09T04:12:26.072Z,3.30
2023-04-09T04:15:17.159Z,2.50
2023-04-09T04:17:49.023Z,2.30
2023-04-09T04:20:36.548Z,4.30
2023-04-09T04:23:28.881Z,2.00
2023-04-09T04:26:11.063Z,1.60
2023-04-09T04:28:39.948Z,2.70
2023-04-09T04:31:11.900Z,3.60
2023-04-09T04:33:41.520Z,3.50
2023-04-09T04:36:13.614Z,3.50
2023-04-09T04:38:53.041Z,1.90
2023-04-09T04:41:32.412Z,2.50
2023-04-09T04:44:13.759Z,3.10
2023-04-09T04:46:43.471Z,2.60
2023-04-09T04:49:13.071Z,1.90
2023-04-09T04:51:49.436Z,1.80
2023-04-09T04:54:17.949Z,1.80
2023-04-09T04:56:51.446Z,2.20
2023-04-09T04:59:46.927Z,2.50
2023-04-09T05:02:15.881Z,3.00
2023-04-09T05:05:17.063Z,2.90
2023-04-09T05:10:21.593Z,2.40
2023-04-09T05:12:50.793Z,3.40
2023-04-09T05:15:24.903Z,2.10
2023-04-09T05:17:53.772Z,2.90
2023-04-09T05:20:22.066Z,2.50
2023-04-09T05:23:03.017Z,1.40
2023-04-09T05:25:36.564Z,2.30
2023-04-09T05:28:11.295Z,2.80
2023-04-09T05:30:39.887Z,2.00
2023-04-09T05:33:09.148Z,3.10
2023-04-09T05:35:40.791Z,2.50
2023-04-09T05:38:09.069Z,2.40
2023-04-09T05:40:37.311Z,2.00
2023-04-09T05:43:08.013Z,2.90
2023-04-09T05:45:42.757Z,2.80
2023-04-09T05:48:11.382Z,2.10
2023-04-09T05:50:53.446Z,2.40
2023-04-09T05:53:25.173Z,1.90
2023-04-09T05:55:53.449Z,3.20
2023-04-09T05:58:23.829Z,1.70
2023-04-09T06:00:57.890Z,2.30
2023-04-09T06:03:26.983Z,2.70
2023-04-09T06:05:55.553Z,2.30
2023-04-09T06:08:27.590Z,2.10
2023-04-09T06:10:56.988Z,2.10
2023-04-09T06:13:25.778Z,2.40
2023-04-09T06:15:54.054Z,2.70
2023-04-09T06:18:22.287Z,2.40
2023-04-09T06:20:50.385Z,2.70
2023-04-09T06:23:29.210Z,2.20
2023-04-09T06:25:57.398Z,4.00
2023-04-09T06:28:25.871Z,3.00
2023-04-09T06:30:56.274Z,2.70
2023-04-09T06:33:24.692Z,3.50
2023-04-09T06:35:53.246Z,3.60
2023-04-09T06:38:21.941Z,3.00
2023-04-09T06:40:50.624Z,2.80
2023-04-09T06:43:19.556Z,3.60
2023-04-09T06:45:52.281Z,4.30
2023-04-09T06:48:20.887Z,4.30
2023-04-09T06:50:52.612Z,2.40
2023-04-09T06:53:21.499Z,4.60
2023-04-09T06:55:49.892Z,3.40
2023-04-09T06:58:21.985Z,4.60
2023-04-09T07:00:50.234Z,3.50
2023-04-09T07:03:28.295Z,2.90
2023-04-09T07:05:57.837Z,2.70
2023-04-09T07:08:27.783Z,3.20
2023-04-09T07:11:01.790Z,3.40
2023-04-09T07:13:34.409Z,3.20
2023-04-09T07:16:03.026Z,5.30
2023-04-09T07:18:31.725Z,2.80
2023-04-09T07:21:00.391Z,3.70
2023-04-09T07:23:29.076Z,4.40
2023-04-09T07:25:57.296Z,6.10
2023-04-09T07:28:26.733Z,4.00
2023-04-09T07:30:55.131Z,3.60
2023-04-09T07:33:43.449Z,4.40
2023-04-09T07:36:12.548Z,4.70
2023-04-09T07:38:41.666Z,2.90
2023-04-09T07:41:12.681Z,2.90
2023-04-09T07:43:41.547Z,3.50
2023-04-09T07:46:10.077Z,2.20
2023-04-09T07:48:38.658Z,2.80
2023-04-09T07:51:07.178Z,4.30
2023-04-09T07:53:37.562Z,4.10
2023-04-09T07:56:06.926Z,2.80
2023-04-09T07:58:38.086Z,2.20
2023-04-09T08:01:08.397Z,2.80
2023-04-09T08:06:10.594Z,3.20
2023-04-09T08:08:44.625Z,4.50
2023-04-09T08:11:16.672Z,4.60
2023-04-09T08:13:45.158Z,2.90
2023-04-09T08:16:15.598Z,3.50
2023-04-09T08:18:43.800Z,3.30
2023-04-09T08:21:12.072Z,3.00
2023-04-09T08:23:48.402Z,3.00
2023-04-09T08:26:16.615Z,2.50
2023-04-09T08:28:45.042Z,4.00
2023-04-09T08:31:13.618Z,2.80
2023-04-09T08:33:43.040Z,3.60
2023-04-09T08:36:12.056Z,2.80
2023-04-09T08:38:41.025Z,5.40
2023-04-09T08:41:19.780Z,3.80
2023-04-09T08:43:57.777Z,4.50
2023-04-09T08:46:29.548Z,3.00
2023-04-09T08:48:57.976Z,2.40
2023-04-09T08:51:29.325Z,2.70
2023-04-09T08:54:03.654Z,2.50
2023-04-09T08:56:33.330Z,2.90
2023-04-09T08:59:01.798Z,2.60
2023-04-09T09:01:31.058Z,3.00
2023-04-09T09:04:08.375Z,2.50
2023-04-09T09:06:40.999Z,2.70
2023-04-09T09:09:12.591Z,1.70
2023-04-09T09:11:52.174Z,2.40
2023-04-09T09:14:24.059Z,3.10
2023-04-09T09:17:08.704Z,5.20
2023-04-09T09:19:38.431Z,4.70
2023-04-09T09:22:11.169Z,2.90
2023-04-09T09:24:52.426Z,4.00
2023-04-09T09:27:37.153Z,2.00
2023-04-09T09:30:08.760Z,2.20
2023-04-09T09:32:37.267Z,2.00
2023-04-09T09:35:07.166Z,2.20
2023-04-09T09:37:36.372Z,1.90
2023-04-09T09:40:05.978Z,2.10
2023-04-09T09:42:37.736Z,2.90
2023-04-09T13:49:56.650Z,2.20
2023-04-09T13:52:24.629Z,2.00
2023-04-09T13:54:53.098Z,1.40
2023-04-09T13:57:25.572Z,1.70
2023-04-09T13:59:53.235Z,2.20
2023-04-09T14:02:20.812Z,2.50
2023-04-09T14:04:49.148Z,2.60
2023-04-09T14:07:17.333Z,2.20
2023-04-09T14:09:45.208Z,1.60
2023-04-09T14:12:12.684Z,1.50
2023-04-09T14:14:39.524Z,2.30
2023-04-09T14:17:07.013Z,1.80
2023-04-09T14:19:35.677Z,2.40
2023-04-09T14:22:08.416Z,2.70
2023-04-09T14:24:39.353Z,1.90
2023-04-09T14:27:08.554Z,3.00
2023-04-09T14:29:36.209Z,1.90
2023-04-09T14:32:07.226Z,1.90
2023-04-09T14:34:37.776Z,2.40
2023-04-09T14:37:05.424Z,1.10
2023-04-09T14:39:39.751Z,2.20
2023-04-09T14:42:07.069Z,2.20
2023-04-09T14:44:40.296Z,1.60
2023-04-09T14:47:22.523Z,1.90
2023-04-09T14:49:53.334Z,2.50
2023-04-09T14:52:25.401Z,2.00
2023-04-09T14:55:12.742Z,2.00
2023-04-09T14:57:41.408Z,2.80
2023-04-09T15:00:10.909Z,3.90
2023-04-09T15:02:38.861Z,5.40
2023-04-09T15:05:07.049Z,6.00
2023-04-09T15:07:39.460Z,4.80
2023-04-09T15:10:12.671Z,5.10
2023-04-09T15:12:40.131Z,4.80
2023-04-09T15:15:09.373Z,9.20
2023-04-09T15:17:50.178Z,7.80
2023-04-09T15:20:19.436Z,7.10
2023-04-09T15:23:03.796Z,5.90
2023-04-09T15:25:38.715Z,8.20
2023-04-09T15:28:15.182Z,9.40
2023-04-09T15:30:44.309Z,7.20
2023-04-09T15:33:12.509Z,9.00
2023-04-09T15:35:43.266Z,6.90
2023-04-09T15:38:17.094Z,8.90
2023-04-09T15:55:12.033Z,5.20
2023-04-09T15:57:46.666Z,4.50
2023-04-09T16:00:15.738Z,5.70
2023-04-09T16:03:04.369Z,4.70
2023-04-09T16:05:39.931Z,5.30
2023-04-09T16:08:08.306Z,5.10
2023-04-09T16:10:41.526Z,4.30
2023-04-09T16:13:09.890Z,4.20
2023-04-09T16:15:40.095Z,3.70
2023-04-09T16:18:10.320Z,2.80
2023-04-09T16:20:42.687Z,3.90
2023-04-09T16:23:16.196Z,4.10
2023-04-09T16:25:46.917Z,4.60
2023-04-09T16:28:17.035Z,4.10
2023-04-09T16:30:45.518Z,3.60
2023-04-09T16:33:16.936Z,3.50
2023-04-09T16:35:47.825Z,4.00
2023-04-09T16:38:31.331Z,2.80
2023-04-09T16:41:00.590Z,4.20
2023-04-09T16:43:32.729Z,3.40
2023-04-09T16:46:09.158Z,3.30
2023-04-09T16:48:41.735Z,3.10
2023-04-09T16:51:12.846Z,3.20
2023-04-09T16:53:44.879Z,3.20
2023-04-09T16:56:19.548Z,2.50
2023-04-09T16:58:48.506Z,2.70
2023-04-09T17:01:20.653Z,1.90
2023-04-09T17:03:49.789Z,3.00
2023-04-09T17:06:18.933Z,3.70
2023-04-09T17:08:48.029Z,2.50
2023-04-09T17:11:17.224Z,3.60
2023-04-09T17:13:51.375Z,2.90
2023-04-09T17:16:25.081Z,3.70
2023-04-09T17:18:54.342Z,3.50
2023-04-09T17:21:27.627Z,3.60
2023-04-09T17:24:02.332Z,4.70
2023-04-09T17:26:30.774Z,3.90
2023-04-09T17:29:00.009Z,2.20
2023-04-09T17:31:28.923Z,3.70
2023-04-09T17:34:16.993Z,3.20
2023-04-09T17:36:49.713Z,2.20
2023-04-09T17:39:25.605Z,4.20
2023-04-09T17:41:58.323Z,2.80
2023-04-09T17:44:28.878Z,2.50
2023-04-09T17:47:04.826Z,3.10
2023-04-09T17:49:34.296Z,4.20
2023-04-09T17:52:03.631Z,3.80
2023-04-09T17:54:34.872Z,3.20
2023-04-09T17:57:07.358Z,2.30
2023-04-09T17:59:42.151Z,3.50
2023-04-09T18:02:16.643Z,3.60
2023-04-09T18:04:49.792Z,4.50
2023-04-09T18:07:19.633Z,3.00
2023-04-09T18:09:52.994Z,2.70
2023-04-09T18:12:21.876Z,2.90
2023-04-09T18:14:52.609Z,3.50
2023-04-09T18:17:27.625Z,3.20
2023-04-09T18:19:59.276Z,3.90
2023-04-09T18:22:29.600Z,3.60
2023-04-09T18:24:59.946Z,5.60
2023-04-09T18:27:29.650Z,4.60
2023-04-09T18:29:59.513Z,6.10
2023-04-09T20:21:34.277Z,3.20
2023-04-09T20:24:02.010Z,3.80
2023-04-09T20:26:30.412Z,3.20
2023-04-09T20:28:58.236Z,5.40
2023-04-09T20:31:26.879Z,3.30
2023-04-09T20:33:53.966Z,3.70
2023-04-09T20:36:20.950Z,4.50
2023-04-09T20:38:53.529Z,3.60
2023-04-09T20:41:20.674Z,3.80
2023-04-09T20:43:47.619Z,3.60
2023-04-09T20:46:14.931Z,4.10
2023-04-09T20:48:42.735Z,3.90
2023-04-09T20:51:10.403Z,3.50
2023-04-09T20:53:37.847Z,4.60
2023-04-09T20:56:05.831Z,3.40
2023-04-09T20:58:41.468Z,5.00
2023-04-09T21:01:09.356Z,4.40
2023-04-09T21:03:39.664Z,2.80
2023-04-09T21:06:09.022Z,4.40
2023-04-09T21:08:37.767Z,3.70
2023-04-09T21:11:05.080Z,2.10
2023-04-09T21:13:40.503Z,3.00
2023-04-09T21:16:20.257Z,2.90
2023-04-09T21:18:48.242Z,4.00
2023-04-09T21:21:27.867Z,2.20
2023-04-09T21:23:55.385Z,2.80
2023-04-09T21:26:22.443Z,2.80
2023-04-09T21:28:50.315Z,3.80
2023-04-09T21:31:17.696Z,3.30
2023-04-09T21:33:44.885Z,2.20
2023-04-09T21:36:13.564Z,3.50
2023-04-09T21:38:41.108Z,2.30
2023-04-09T21:41:08.050Z,1.50
2023-04-09T21:43:37.727Z,1.80
2023-04-09T21:46:05.213Z,2.50
2023-04-09T21:48:33.081Z,2.80
2023-04-09T21:51:00.493Z,2.80
2023-04-09T21:53:30.442Z,3.30
2023-04-09T21:55:57.700Z,2.30
2023-04-09T21:58:24.755Z,3.20
2023-04-09T22:00:52.613Z,2.90
2023-04-09T22:03:20.573Z,3.40
2023-04-09T22:05:53.770Z,3.30
2023-04-09T22:08:21.021Z,2.80
2023-04-09T22:10:48.067Z,2.90
2023-04-09T22:13:18.594Z,3.00
2023-04-09T22:15:46.407Z,2.60
2023-04-09T22:18:13.413Z,4.70
2023-04-09T22:20:42.089Z,3.40
2023-04-09T22:23:09.339Z,3.60
2023-04-09T22:25:37.122Z,3.10
2023-04-09T22:28:10.299Z,2.70
2023-04-09T22:30:40.617Z,2.60
2023-04-09T22:33:08.500Z,2.90
2023-04-09T22:35:35.942Z,3.30
2023-04-09T22:38:03.478Z,2.20
2023-04-09T22:40:30.635Z,2.90
2023-04-09T22:42:57.562Z,2.90
2023-04-09T22:45:27.288Z,2.80
2023-04-09T22:47:55.179Z,3.50
2023-04-09T22:50:22.818Z,2.70
2023-04-09T22:52:51.040Z,5.20
2023-04-09T22:55:18.959Z,2.40
2023-04-09T22:57:46.179Z,3.50
2023-04-09T23:00:13.812Z,4.10
2023-04-09T23:02:41.430Z,3.70
2023-04-09T23:05:09.247Z,2.80
2023-04-09T23:07:36.130Z,2.60
2023-04-09T23:10:03.120Z,3.50
2023-04-09T23:12:32.881Z,2.20
2023-04-09T23:15:00.121Z,2.30
2023-04-09T23:17:27.215Z,2.70
2023-04-09T23:19:54.329Z,3.40
2023-04-09T23:22:21.575Z,2.00
2023-04-09T23:24:48.623Z,3.10
2023-04-09T23:27:16.495Z,2.50
2023-04-09T23:29:43.530Z,3.30
2023-04-09T23:32:10.579Z,5.30
2023-04-09T23:34:38.853Z,3.60
2023-04-09T23:37:05.796Z,4.10
2023-04-09T23:39:36.325Z,3.90
2023-04-09T23:42:03.884Z,4.70
2023-04-09T23:44:32.809Z,3.60
2023-04-09T23:47:00.915Z,5.10
2023-04-09T23:49:28.569Z,4.70
2023-04-09T23:51:56.546Z,3.60
2023-04-09T23:54:23.960Z,2.60
2023-04-09T23:57:01.927Z,3.90
2023-04-09T23:59:33.280Z,3.10
